Terminal Aerodrome Forecast
Issued by NWS

Home | Current Version | Previous Version | Text Only | Print | Product List | Glossary On
Versions: 1 2 3 4 5 6 7 8 9 10 11 12
000
FTUS46 KSGX 290500
TAFONT
TAF
KONT 290520Z 2906/3012 00000KT P6SM SKC
     FM300400 VRB04KT P6SM SCT005
     FM300900 VRB04KT 6SM BR BKN010=

USA.gov is the U.S. government's official web portal to all federal, state and local government web resources and services.